Time;durP1;ratioP1;P1;durP2;ratioP2;P2;SDS_P1;SDS_P2;PMS_P1;PMS_P2;Temp;Humidity;BMP_temperature;BMP_pressure;BME280_temperature;BME280_humidity;BME280_pressure;Samples;Min_cycle;Max_cycle;Signal;HPM_P1;HPM_P2
2022/04/14 00:00:27;;;;;;;11.70;4.90;;;;;;;;;;5102655;28;20043;-78
2022/04/14 00:02:53;;;;;;;11.15;5.07;;;;;;;;;;5102930;28;20043;-78
2022/04/14 00:05:19;;;;;;;10.55;4.88;;;;;;;;;;5087094;28;20079;-79
2022/04/14 00:07:45;;;;;;;13.25;5.40;;;;;;;;;;5085770;28;20039;-79
2022/04/14 00:10:11;;;;;;;11.07;5.03;;;;;;;;;;5102819;28;20039;-78
2022/04/14 00:12:37;;;;;;;15.35;5.47;;;;;;;;;;5104107;28;20038;-79
2022/04/14 00:15:04;;;;;;;10.40;4.72;;;;;;;;;;5085378;28;20410;-79
2022/04/14 00:17:32;;;;;;;8.95;4.95;;;;;;;;;;5102979;28;20039;-78
2022/04/14 00:19:58;;;;;;;10.07;5.05;;;;;;;;;;5103965;28;20099;-78
2022/04/14 00:22:24;;;;;;;7.63;4.50;;;;;;;;;;5085521;28;20479;-79
2022/04/14 00:24:50;;;;;;;8.02;4.00;;;;;;;;;;5102885;28;20461;-79
2022/04/14 00:27:19;;;;;;;8.85;4.18;;;;;;;;;;5096117;28;20047;-79
2022/04/14 00:29:45;;;;;;;12.68;4.90;;;;;;;;;;5076161;28;20044;-78
2022/04/14 00:32:11;;;;;;;10.40;4.63;;;;;;;;;;5079123;28;20560;-77
2022/04/14 00:34:37;;;;;;;8.85;4.38;;;;;;;;;;5097061;28;20039;-78
2022/04/14 00:37:03;;;;;;;10.27;4.75;;;;;;;;;;5080304;28;20039;-78
2022/04/14 00:39:29;;;;;;;12.95;5.28;;;;;;;;;;5079724;28;20046;-78
2022/04/14 00:41:55;;;;;;;8.88;5.30;;;;;;;;;;5079856;28;20035;-77
2022/04/14 00:44:21;;;;;;;16.98;6.32;;;;;;;;;;5096765;28;20052;-78
2022/04/14 00:46:47;;;;;;;13.45;5.13;;;;;;;;;;5097504;28;20039;-77
2022/04/14 00:49:13;;;;;;;14.40;6.03;;;;;;;;;;5097462;28;20046;-78
2022/04/14 00:51:39;;;;;;;11.05;6.45;;;;;;;;;;5097240;28;20047;-78
2022/04/14 00:54:05;;;;;;;15.10;6.97;;;;;;;;;;5097283;28;20379;-80
2022/04/14 00:56:31;;;;;;;11.63;7.72;;;;;;;;;;5079919;28;20411;-78
2022/04/14 00:58:57;;;;;;;11.75;6.55;;;;;;;;;;5096484;28;20085;-80
2022/04/14 01:01:23;;;;;;;13.95;6.72;;;;;;;;;;5096403;28;20411;-79
2022/04/14 01:03:51;;;;;;;14.80;6.72;;;;;;;;;;5079739;28;20059;-78
2022/04/14 01:06:19;;;;;;;16.95;8.35;;;;;;;;;;5096384;28;20491;-77
2022/04/14 01:11:30;;;;;;;15.48;7.45;;;;;;;;;;5096668;28;20130;-77
2022/04/14 01:13:56;;;;;;;15.82;7.88;;;;;;;;;;5079269;28;20127;-78
2022/04/14 01:16:22;;;;;;;16.90;8.13;;;;;;;;;;5096306;28;20046;-77
2022/04/14 01:18:48;;;;;;;19.65;7.70;;;;;;;;;;5079005;28;20464;-77
2022/04/14 01:21:14;;;;;;;14.88;7.75;;;;;;;;;;5096053;28;20046;-77
2022/04/14 01:23:42;;;;;;;17.52;7.93;;;;;;;;;;5079341;28;20048;-77
2022/04/14 01:26:08;;;;;;;15.75;8.07;;;;;;;;;;5079176;28;20468;-77
2022/04/14 01:28:34;;;;;;;16.08;7.80;;;;;;;;;;5095720;28;20043;-78
2022/04/14 01:31:00;;;;;;;15.90;7.88;;;;;;;;;;5079035;28;20162;-78
2022/04/14 01:33:26;;;;;;;18.08;8.32;;;;;;;;;;5079103;28;20036;-78
2022/04/14 01:35:52;;;;;;;20.30;8.40;;;;;;;;;;5095572;28;20077;-79
2022/04/14 01:38:18;;;;;;;16.45;7.18;;;;;;;;;;5095790;28;20040;-78
2022/04/14 01:40:44;;;;;;;14.27;7.57;;;;;;;;;;5078511;28;20040;-80
2022/04/14 01:43:10;;;;;;;17.08;7.68;;;;;;;;;;5077963;28;20051;-78
2022/04/14 01:45:36;;;;;;;17.80;7.65;;;;;;;;;;5079610;28;20039;-77
2022/04/14 01:48:02;;;;;;;14.50;8.05;;;;;;;;;;5079473;28;20062;-77
2022/04/14 01:50:28;;;;;;;20.13;7.75;;;;;;;;;;5079628;28;20031;-78
2022/04/14 01:52:54;;;;;;;17.77;8.90;;;;;;;;;;5096232;28;20046;-78
2022/04/14 01:55:20;;;;;;;16.38;8.65;;;;;;;;;;5079211;28;20040;-77
2022/04/14 01:57:46;;;;;;;19.95;8.00;;;;;;;;;;5096223;28;20454;-78
2022/04/14 02:00:14;;;;;;;17.00;9.18;;;;;;;;;;5078807;28;20514;-77
2022/04/14 02:02:40;;;;;;;17.38;8.45;;;;;;;;;;5095054;28;20043;-77
2022/04/14 02:05:07;;;;;;;14.68;8.57;;;;;;;;;;5078108;28;20032;-77
2022/04/14 02:07:34;;;;;;;15.70;7.82;;;;;;;;;;5094790;28;20529;-78
2022/04/14 02:10:00;;;;;;;23.48;8.80;;;;;;;;;;5077563;28;20040;-77
2022/04/14 02:12:26;;;;;;;20.60;9.55;;;;;;;;;;5078144;28;20163;-78
2022/04/14 02:14:53;;;;;;;14.65;7.50;;;;;;;;;;5077967;28;20061;-78
2022/04/14 02:17:19;;;;;;;16.85;8.50;;;;;;;;;;5094935;28;20518;-78
2022/04/14 02:19:47;;;;;;;18.40;8.20;;;;;;;;;;5094846;28;20035;-77
2022/04/14 02:22:13;;;;;;;17.73;8.18;;;;;;;;;;5077748;28;20040;-77
2022/04/14 02:24:39;;;;;;;18.83;8.43;;;;;;;;;;5095038;28;20046;-77
2022/04/14 02:27:05;;;;;;;24.25;8.43;;;;;;;;;;5094702;28;20123;-77
2022/04/14 02:29:31;;;;;;;22.60;8.75;;;;;;;;;;5078026;28;20169;-77
2022/04/14 02:31:57;;;;;;;20.42;9.13;;;;;;;;;;5095040;28;20039;-77
2022/04/14 02:34:27;;;;;;;14.35;8.30;;;;;;;;;;5077857;28;20092;-77
2022/04/14 02:36:54;;;;;;;18.58;9.02;;;;;;;;;;5094582;28;20090;-77
2022/04/14 02:39:20;;;;;;;17.90;9.68;;;;;;;;;;5094496;28;20049;-77
2022/04/14 02:41:46;;;;;;;20.17;10.23;;;;;;;;;;5077175;28;20142;-77
2022/04/14 02:44:12;;;;;;;19.80;9.23;;;;;;;;;;5094023;28;20138;-77
2022/04/14 02:46:38;;;;;;;17.25;9.05;;;;;;;;;;5077523;28;20092;-77
2022/04/14 02:49:04;;;;;;;21.85;10.38;;;;;;;;;;5077495;28;20043;-77
2022/04/14 02:51:30;;;;;;;18.63;9.93;;;;;;;;;;5094215;28;20043;-78
2022/04/14 02:53:56;;;;;;;19.40;9.10;;;;;;;;;;5093918;28;20525;-77
2022/04/14 02:56:22;;;;;;;20.45;9.57;;;;;;;;;;5077096;28;20040;-78
2022/04/14 02:58:48;;;;;;;18.73;9.40;;;;;;;;;;5094007;28;20038;-78
2022/04/14 03:01:14;;;;;;;20.40;9.93;;;;;;;;;;5077514;28;20036;-78
2022/04/14 03:03:40;;;;;;;17.98;9.77;;;;;;;;;;5077071;28;20056;-78
2022/04/14 03:06:06;;;;;;;22.45;10.32;;;;;;;;;;5077214;28;20118;-78
2022/04/14 03:08:32;;;;;;;21.20;10.48;;;;;;;;;;5077646;28;20054;-78
2022/04/14 03:10:58;;;;;;;20.52;9.90;;;;;;;;;;5077883;28;20058;-78
2022/04/14 03:13:24;;;;;;;16.98;8.30;;;;;;;;;;5093906;28;20039;-78
2022/04/14 03:15:51;;;;;;;17.20;8.60;;;;;;;;;;5076968;28;20047;-78
2022/04/14 03:18:17;;;;;;;17.60;9.52;;;;;;;;;;5077195;28;20035;-78
2022/04/14 03:20:43;;;;;;;16.42;8.88;;;;;;;;;;5093711;28;20047;-78
2022/04/14 03:23:09;;;;;;;17.95;9.15;;;;;;;;;;5077328;28;20472;-78
2022/04/14 03:25:34;;;;;;;18.85;8.73;;;;;;;;;;5076849;28;20112;-78
2022/04/14 03:28:00;;;;;;;16.55;8.93;;;;;;;;;;5076882;28;20061;-78
2022/04/14 03:30:26;;;;;;;17.30;9.98;;;;;;;;;;5076859;28;20039;-77
2022/04/14 03:32:52;;;;;;;18.67;9.30;;;;;;;;;;5093732;28;20044;-78
2022/04/14 03:35:18;;;;;;;18.23;9.38;;;;;;;;;;5076853;28;20043;-78
2022/04/14 03:37:44;;;;;;;20.83;10.25;;;;;;;;;;5077138;28;20483;-78
2022/04/14 03:40:11;;;;;;;22.08;9.88;;;;;;;;;;5076817;28;20384;-77
2022/04/14 03:42:37;;;;;;;23.13;12.05;;;;;;;;;;5076821;28;20036;-78
2022/04/14 03:45:07;;;;;;;19.27;11.07;;;;;;;;;;5076941;28;20040;-77
2022/04/14 03:47:33;;;;;;;24.58;10.93;;;;;;;;;;5093633;28;20047;-77
2022/04/14 03:49:59;;;;;;;17.33;10.45;;;;;;;;;;5076651;28;20036;-78
2022/04/14 03:52:25;;;;;;;23.70;10.55;;;;;;;;;;5076554;28;20554;-78
2022/04/14 03:54:51;;;;;;;18.42;9.93;;;;;;;;;;5077001;28;20414;-77
2022/04/14 03:57:17;;;;;;;24.90;10.88;;;;;;;;;;5093653;28;20043;-77
2022/04/14 03:59:43;;;;;;;20.38;10.95;;;;;;;;;;5093346;28;20039;-77
2022/04/14 04:02:09;;;;;;;22.67;12.23;;;;;;;;;;5076717;28;20476;-78
2022/04/14 04:04:35;;;;;;;21.83;11.27;;;;;;;;;;5093668;28;20387;-78
2022/04/14 04:07:01;;;;;;;24.80;12.63;;;;;;;;;;5079771;28;20484;-77
2022/04/14 04:09:27;;;;;;;25.63;13.10;;;;;;;;;;5080651;28;20065;-77
2022/04/14 04:11:58;;;;;;;22.73;12.57;;;;;;;;;;5097218;28;20051;-78
2022/04/14 04:14:24;;;;;;;22.20;12.85;;;;;;;;;;5097191;28;20093;-77
2022/04/14 04:16:50;;;;;;;23.05;12.55;;;;;;;;;;5098518;28;20047;-77
2022/04/14 04:19:16;;;;;;;29.52;13.43;;;;;;;;;;5081070;28;20071;-77
2022/04/14 04:21:42;;;;;;;31.10;14.23;;;;;;;;;;5097842;28;20046;-77
2022/04/14 04:24:08;;;;;;;24.17;12.40;;;;;;;;;;5081047;28;20536;-78
2022/04/14 04:26:34;;;;;;;20.13;10.15;;;;;;;;;;5097422;28;20042;-78
2022/04/14 04:29:00;;;;;;;25.63;11.27;;;;;;;;;;5080606;28;20047;-77
2022/04/14 04:31:26;;;;;;;27.70;12.57;;;;;;;;;;5080244;28;20111;-78
2022/04/14 04:33:53;;;;;;;25.25;12.73;;;;;;;;;;5080342;28;20416;-77
2022/04/14 04:36:19;;;;;;;26.67;12.95;;;;;;;;;;5097133;28;20495;-78
2022/04/14 04:38:45;;;;;;;27.27;12.50;;;;;;;;;;5079771;28;20085;-78
2022/04/14 04:41:11;;;;;;;25.23;12.73;;;;;;;;;;5079758;28;20050;-78
2022/04/14 04:43:36;;;;;;;32.40;14.88;;;;;;;;;;5096455;28;20060;-78
2022/04/14 04:46:03;;;;;;;36.80;14.75;;;;;;;;;;5096829;28;20116;-77
2022/04/14 04:48:29;;;;;;;25.25;13.75;;;;;;;;;;5097224;28;20438;-77
2022/04/14 04:50:55;;;;;;;28.52;13.85;;;;;;;;;;5080402;28;20046;-78
2022/04/14 04:53:21;;;;;;;28.70;13.05;;;;;;;;;;5080813;28;20043;-77
2022/04/14 04:55:47;;;;;;;27.88;13.45;;;;;;;;;;5080141;28;20040;-77
2022/04/14 04:58:14;;;;;;;26.20;12.93;;;;;;;;;;5097297;28;20043;-77
2022/04/14 05:00:41;;;;;;;24.50;12.27;;;;;;;;;;5097580;28;20041;-78
2022/04/14 05:03:10;;;;;;;27.90;13.13;;;;;;;;;;5097719;28;20047;-77
2022/04/14 05:05:36;;;;;;;28.42;13.93;;;;;;;;;;5097377;28;20076;-77
2022/04/14 05:08:02;;;;;;;23.80;12.48;;;;;;;;;;5080374;28;20040;-78
2022/04/14 05:10:28;;;;;;;27.67;12.23;;;;;;;;;;5096007;28;20085;-77
2022/04/14 05:12:54;;;;;;;19.80;11.65;;;;;;;;;;5096400;28;20081;-77
2022/04/14 05:15:21;;;;;;;24.05;12.35;;;;;;;;;;5096152;28;20078;-78
2022/04/14 05:17:47;;;;;;;23.85;13.73;;;;;;;;;;5078229;28;20040;-77
2022/04/14 05:20:13;;;;;;;26.98;13.95;;;;;;;;;;5096045;28;20056;-77
2022/04/14 05:22:39;;;;;;;23.63;12.85;;;;;;;;;;5096506;28;20036;-77
2022/04/14 05:25:06;;;;;;;29.25;14.88;;;;;;;;;;5079256;28;20062;-77
2022/04/14 05:27:32;;;;;;;33.50;15.70;;;;;;;;;;5095947;28;20039;-77
2022/04/14 05:29:58;;;;;;;34.05;16.60;;;;;;;;;;5095931;28;20042;-78
2022/04/14 05:32:24;;;;;;;31.80;15.43;;;;;;;;;;5079277;28;20039;-77
2022/04/14 05:34:49;;;;;;;32.03;16.45;;;;;;;;;;5079222;28;20109;-78
2022/04/14 05:37:16;;;;;;;32.65;17.25;;;;;;;;;;5095739;28;20043;-77
2022/04/14 05:39:42;;;;;;;41.63;17.85;;;;;;;;;;5095751;28;20043;-77
2022/04/14 05:42:08;;;;;;;38.85;18.50;;;;;;;;;;5095655;28;20511;-77
2022/04/14 05:44:33;;;;;;;40.72;18.38;;;;;;;;;;5095391;28;20063;-76
2022/04/14 05:46:59;;;;;;;34.80;18.42;;;;;;;;;;5078945;28;20053;-78
2022/04/14 05:49:25;;;;;;;39.17;18.10;;;;;;;;;;5079035;28;20399;-77
2022/04/14 05:51:51;;;;;;;41.22;20.45;;;;;;;;;;5095655;28;20047;-78
2022/04/14 05:54:17;;;;;;;43.42;19.88;;;;;;;;;;5079044;28;20043;-77
2022/04/14 05:56:43;;;;;;;44.47;18.92;;;;;;;;;;5095243;28;20513;-77
2022/04/14 05:59:18;;;;;;;38.60;19.33;;;;;;;;;;5095279;28;20514;-77
2022/04/14 06:01:45;;;;;;;39.63;19.17;;;;;;;;;;5094969;28;20059;-77
2022/04/14 06:04:11;;;;;;;36.47;18.50;;;;;;;;;;5095304;28;20042;-78
2022/04/14 06:06:37;;;;;;;42.42;21.38;;;;;;;;;;5095240;28;20501;-77
2022/04/14 06:09:03;;;;;;;43.95;19.52;;;;;;;;;;5078135;28;20042;-78
2022/04/14 06:11:29;;;;;;;41.20;19.70;;;;;;;;;;5094846;28;20043;-77
2022/04/14 06:13:55;;;;;;;41.53;20.33;;;;;;;;;;5095119;28;20043;-78
2022/04/14 06:16:21;;;;;;;41.28;20.27;;;;;;;;;;5078231;28;20046;-77
2022/04/14 06:18:47;;;;;;;39.78;19.65;;;;;;;;;;5078133;28;20039;-77
2022/04/14 06:21:13;;;;;;;37.28;17.83;;;;;;;;;;5095157;28;20043;-78
2022/04/14 06:23:39;;;;;;;39.17;19.70;;;;;;;;;;5095516;28;20088;-77
2022/04/14 06:26:05;;;;;;;36.95;19.77;;;;;;;;;;5094482;28;20118;-78
2022/04/14 06:28:34;;;;;;;35.78;19.50;;;;;;;;;;5080372;28;20058;-78
2022/04/14 06:31:00;;;;;;;40.58;18.60;;;;;;;;;;5086369;27;20080;-78
2022/04/14 06:33:30;;;;;;;37.13;18.45;;;;;;;;;;5106366;27;20039;-78
2022/04/14 06:35:56;;;;;;;29.70;16.17;;;;;;;;;;5103168;27;20365;-78
2022/04/14 06:38:24;;;;;;;31.63;16.45;;;;;;;;;;5104874;27;20038;-81
2022/04/14 06:40:50;;;;;;;30.83;16.60;;;;;;;;;;5105689;27;20449;-79
2022/04/14 06:43:16;;;;;;;29.58;15.95;;;;;;;;;;5102579;27;20047;-78
2022/04/14 06:45:42;;;;;;;30.48;15.25;;;;;;;;;;5104975;27;20130;-78
2022/04/14 06:48:09;;;;;;;26.73;14.02;;;;;;;;;;5104682;27;20438;-78
2022/04/14 06:50:35;;;;;;;27.80;15.27;;;;;;;;;;5102997;28;20035;-79
2022/04/14 06:53:01;;;;;;;25.73;15.10;;;;;;;;;;5105564;27;20043;-78
2022/04/14 06:55:27;;;;;;;24.40;14.18;;;;;;;;;;5104158;27;20035;-78
2022/04/14 06:57:53;;;;;;;27.73;14.50;;;;;;;;;;5088682;27;20070;-81
2022/04/14 07:00:21;;;;;;;23.33;13.35;;;;;;;;;;5100909;27;20801;-80
2022/04/14 07:02:51;;;;;;;23.35;14.68;;;;;;;;;;5103726;27;20043;-78
2022/04/14 07:05:17;;;;;;;29.05;14.77;;;;;;;;;;5087722;27;20042;-78
2022/04/14 07:07:44;;;;;;;27.67;13.95;;;;;;;;;;5084945;28;20507;-79
2022/04/14 07:10:11;;;;;;;23.90;20.17;;;;;;;;;;5099983;27;20486;-79
2022/04/14 07:12:38;;;;;;;23.58;18.75;;;;;;;;;;5101267;27;20499;-80
2022/04/14 07:15:04;;;;;;;24.40;12.57;;;;;;;;;;5099946;27;20044;-80
2022/04/14 07:17:30;;;;;;;23.88;18.15;;;;;;;;;;5099973;28;20091;-79
2022/04/14 07:19:58;;;;;;;22.80;17.73;;;;;;;;;;5101004;27;20043;-78
2022/04/14 07:22:24;;;;;;;23.67;18.02;;;;;;;;;;5082695;28;20031;-78
2022/04/14 07:24:50;;;;;;;20.55;17.17;;;;;;;;;;5100166;27;20505;-79
2022/04/14 07:27:21;;;;;;;20.67;16.63;;;;;;;;;;5101278;28;20031;-79
2022/04/14 07:29:47;;;;;;;21.13;16.60;;;;;;;;;;5083344;28;20035;-79
2022/04/14 07:32:14;;;;;;;19.88;16.40;;;;;;;;;;5102080;28;20039;-79
2022/04/14 07:34:40;;;;;;;18.55;15.82;;;;;;;;;;5111127;28;20506;-78
2022/04/14 07:37:05;;;;;;;18.77;15.38;;;;;;;;;;5113798;28;20039;-82
2022/04/14 07:39:32;;;;;;;18.17;14.95;;;;;;;;;;5111133;28;20045;-80
2022/04/14 07:41:58;;;;;;;16.90;15.02;;;;;;;;;;5113063;27;20039;-80
2022/04/14 07:44:24;;;;;;;20.10;15.85;;;;;;;;;;5114781;27;20521;-80
2022/04/14 07:46:50;;;;;;;17.02;15.00;;;;;;;;;;5116827;27;20582;-79
2022/04/14 07:49:16;;;;;;;18.60;15.80;;;;;;;;;;5114534;27;20054;-80
2022/04/14 07:51:42;;;;;;;18.48;16.30;;;;;;;;;;5114524;27;20406;-80
2022/04/14 07:54:08;;;;;;;19.05;15.98;;;;;;;;;;5114865;27;20082;-78
2022/04/14 07:56:34;;;;;;;18.27;15.10;;;;;;;;;;5115800;27;20039;-80
2022/04/14 07:59:00;;;;;;;17.30;15.60;;;;;;;;;;5117610;27;20041;-80
2022/04/14 08:01:28;;;;;;;16.35;14.00;;;;;;;;;;5115166;27;20070;-79
2022/04/14 08:03:54;;;;;;;17.80;14.40;;;;;;;;;;5116152;27;20626;-78
2022/04/14 08:06:20;;;;;;;15.18;13.55;;;;;;;;;;5116451;27;20063;-79
2022/04/14 08:08:46;;;;;;;14.88;13.13;;;;;;;;;;5115173;27;20130;-79
2022/04/14 08:11:12;;;;;;;14.25;12.75;;;;;;;;;;5114489;27;20159;-79
2022/04/14 08:13:40;;;;;;;14.43;12.93;;;;;;;;;;5114355;27;20232;-79
2022/04/14 08:16:06;;;;;;;14.75;13.25;;;;;;;;;;5115398;27;20054;-78
2022/04/14 08:18:39;;;;;;;14.90;12.88;;;;;;;;;;5113950;27;20047;-80
2022/04/14 08:21:06;;;;;;;14.75;12.95;;;;;;;;;;5116165;27;20423;-81
2022/04/14 08:23:32;;;;;;;15.13;13.52;;;;;;;;;;5115352;27;20042;-78
2022/04/14 08:26:01;;;;;;;14.27;12.80;;;;;;;;;;5113870;27;20050;-80
2022/04/14 08:28:27;;;;;;;15.02;13.43;;;;;;;;;;5113762;27;20087;-79
2022/04/14 08:30:54;;;;;;;14.32;12.93;;;;;;;;;;5115468;27;20039;-79
2022/04/14 08:33:23;;;;;;;14.40;12.82;;;;;;;;;;5113934;27;20503;-78
2022/04/14 08:35:49;;;;;;;13.98;12.48;;;;;;;;;;5113801;27;20130;-78
2022/04/14 08:38:16;;;;;;;14.00;12.45;;;;;;;;;;5113586;27;20557;-79
2022/04/14 08:40:42;;;;;;;14.27;12.25;;;;;;;;;;5116545;27;20047;-79
2022/04/14 08:43:09;;;;;;;15.32;13.73;;;;;;;;;;5117012;27;20047;-79
2022/04/14 08:45:36;;;;;;;14.98;13.40;;;;;;;;;;5116784;27;20046;-80
2022/04/14 08:48:02;;;;;;;14.80;12.25;;;;;;;;;;5106227;28;20050;-81
2022/04/14 08:50:30;;;;;;;17.25;12.13;;;;;;;;;;5096991;28;20122;-79
2022/04/14 08:52:57;;;;;;;16.75;12.50;;;;;;;;;;5082086;28;20047;-82
2022/04/14 08:55:23;;;;;;;20.92;13.65;;;;;;;;;;5095947;28;20036;-82
2022/04/14 08:57:49;;;;;;;15.82;13.05;;;;;;;;;;5096000;28;20074;-83
2022/04/14 09:00:20;;;;;;;21.20;13.32;;;;;;;;;;5081473;28;20063;-80
2022/04/14 09:02:46;;;;;;;16.75;12.15;;;;;;;;;;5095826;28;20047;-81
2022/04/14 09:05:19;;;;;;;15.75;13.52;;;;;;;;;;5098696;28;20062;-80
2022/04/14 09:07:52;;;;;;;14.32;12.82;;;;;;;;;;5098226;28;20372;-83
2022/04/14 09:10:18;;;;;;;15.75;13.60;;;;;;;;;;5081625;28;20047;-81
2022/04/14 09:12:45;;;;;;;16.85;14.15;;;;;;;;;;5081029;28;20130;-79
2022/04/14 09:15:11;;;;;;;17.05;14.85;;;;;;;;;;5081794;28;20044;-82
2022/04/14 09:17:37;;;;;;;16.20;14.23;;;;;;;;;;5096584;28;20043;-82
2022/04/14 09:20:22;;;;;;;17.15;14.32;;;;;;;;;;5098752;28;20495;-81
2022/04/14 09:23:09;;;;;;;17.83;15.45;;;;;;;;;;5097254;28;20518;-80
2022/04/14 09:25:35;;;;;;;20.08;16.15;;;;;;;;;;5080807;28;20035;-79
2022/04/14 09:28:14;;;;;;;19.63;14.70;;;;;;;;;;5079024;28;20039;-81
2022/04/14 09:30:41;;;;;;;19.55;15.98;;;;;;;;;;5081799;28;20105;-81
2022/04/14 09:33:15;;;;;;;17.27;15.00;;;;;;;;;;5096049;28;20047;-80
2022/04/14 09:35:41;;;;;;;19.48;16.08;;;;;;;;;;5096485;28;20051;-83
2022/04/14 09:38:08;;;;;;;19.60;16.65;;;;;;;;;;5097183;28;20491;-82
2022/04/14 09:40:35;;;;;;;18.05;15.50;;;;;;;;;;5095679;28;20119;-85
2022/04/14 09:43:01;;;;;;;17.35;15.40;;;;;;;;;;5095885;28;20126;-80
2022/04/14 09:45:28;;;;;;;19.38;16.05;;;;;;;;;;5096894;28;20046;-73
2022/04/14 09:47:55;;;;;;;16.63;14.80;;;;;;;;;;5096257;28;20077;-79
2022/04/14 09:50:24;;;;;;;18.40;15.45;;;;;;;;;;5080342;28;20046;-84
2022/04/14 09:52:57;;;;;;;18.63;16.42;;;;;;;;;;5080081;28;20036;-85
2022/04/14 09:55:23;;;;;;;16.92;14.88;;;;;;;;;;5097750;28;20548;-81
2022/04/14 09:58:05;;;;;;;20.65;16.00;;;;;;;;;;5079015;28;20118;-79
2022/04/14 10:00:49;;;;;;;18.17;14.02;;;;;;;;;;5079178;28;20031;-85
2022/04/14 10:03:19;;;;;;;17.95;10.32;;;;;;;;;;5078785;28;20039;-81
2022/04/14 10:05:49;;;;;;;14.07;8.82;;;;;;;;;;5096942;28;20039;-82
2022/04/14 10:08:15;;;;;;;13.68;7.50;;;;;;;;;;5079256;28;20046;-85
2022/04/14 10:10:43;;;;;;;12.25;7.05;;;;;;;;;;5079046;28;20046;-82
2022/04/14 10:13:10;;;;;;;13.07;11.45;;;;;;;;;;5079718;28;20039;-87
2022/04/14 10:15:40;;;;;;;11.20;7.93;;;;;;;;;;5079318;28;20055;-80
2022/04/14 10:18:08;;;;;;;13.05;7.43;;;;;;;;;;5095738;28;20073;-76
2022/04/14 10:20:37;;;;;;;12.93;7.65;;;;;;;;;;5078489;28;20067;-82
2022/04/14 10:23:04;;;;;;;13.18;7.43;;;;;;;;;;5079051;28;20043;-82
2022/04/14 10:25:32;;;;;;;12.32;10.60;;;;;;;;;;5078995;28;20126;-78
2022/04/14 10:27:58;;;;;;;13.88;8.48;;;;;;;;;;5080772;28;20122;-78
2022/04/14 10:30:25;;;;;;;11.98;6.82;;;;;;;;;;5079353;28;20043;-79
2022/04/14 10:32:52;;;;;;;13.50;11.68;;;;;;;;;;5079817;28;20044;-78
2022/04/14 10:35:18;;;;;;;10.88;6.25;;;;;;;;;;5079898;28;20043;-75
2022/04/14 10:37:46;;;;;;;10.63;6.50;;;;;;;;;;5095973;28;20043;-79
2022/04/14 10:40:12;;;;;;;9.32;5.80;;;;;;;;;;5078363;28;20122;-75
2022/04/14 10:42:38;;;;;;;12.40;9.25;;;;;;;;;;5094222;28;20140;-72
2022/04/14 10:45:18;;;;;;;8.38;4.75;;;;;;;;;;5078027;28;20169;-75
2022/04/14 10:47:44;;;;;;;7.18;4.97;;;;;;;;;;5094686;28;20039;-70
2022/04/14 10:50:23;;;;;;;7.15;4.65;;;;;;;;;;5077146;28;20541;-74
2022/04/14 10:53:01;;;;;;;9.88;5.43;;;;;;;;;;5097311;28;20032;-80
2022/04/14 10:55:54;;;;;;;9.40;5.43;;;;;;;;;;5078896;28;20043;-79
2022/04/14 10:58:29;;;;;;;11.27;5.00;;;;;;;;;;5076918;28;20048;-79
2022/04/14 11:00:56;;;;;;;8.55;4.72;;;;;;;;;;5079112;28;20082;-80
2022/04/14 11:03:43;;;;;;;6.40;4.30;;;;;;;;;;5094786;28;20039;-71
2022/04/14 11:06:09;;;;;;;5.80;3.88;;;;;;;;;;5077545;28;20102;-71
2022/04/14 11:08:46;;;;;;;7.53;3.72;;;;;;;;;;5095110;28;20071;-85
2022/04/14 11:11:12;;;;;;;5.30;3.63;;;;;;;;;;5095684;28;20047;-77
2022/04/14 11:13:51;;;;;;;5.38;3.50;;;;;;;;;;5077323;28;20039;-78
2022/04/14 11:16:35;;;;;;;4.50;2.95;;;;;;;;;;5079546;28;20122;-83
2022/04/14 11:19:24;;;;;;;4.20;2.80;;;;;;;;;;5080866;28;20130;-78
2022/04/14 11:22:05;;;;;;;4.90;3.15;;;;;;;;;;5078546;28;20084;-77
2022/04/14 11:24:40;;;;;;;5.05;3.00;;;;;;;;;;5094009;28;20089;-75
2022/04/14 11:27:16;;;;;;;4.05;2.63;;;;;;;;;;5076761;28;20084;-73
2022/04/14 11:29:47;;;;;;;6.28;3.50;;;;;;;;;;5076859;28;20047;-74
2022/04/14 11:32:13;;;;;;;7.82;3.40;;;;;;;;;;5094735;28;20035;-79
2022/04/14 11:34:40;;;;;;;6.40;3.63;;;;;;;;;;5078253;28;20403;-76
2022/04/14 11:37:25;;;;;;;5.25;3.17;;;;;;;;;;5078242;28;20043;-79
2022/04/14 11:40:10;;;;;;;3.40;2.42;;;;;;;;;;5094177;28;20040;-69
2022/04/14 11:42:36;;;;;;;2.63;1.75;;;;;;;;;;5077190;28;20067;-69
2022/04/14 11:45:03;;;;;;;3.63;2.42;;;;;;;;;;5094104;28;20094;-70
2022/04/14 11:47:29;;;;;;;5.03;3.17;;;;;;;;;;5077245;28;20044;-73
2022/04/14 11:49:55;;;;;;;5.00;2.70;;;;;;;;;;5077663;28;20082;-71
2022/04/14 11:52:22;;;;;;;5.22;3.33;;;;;;;;;;5093689;28;20043;-70
2022/04/14 11:54:49;;;;;;;4.30;2.70;;;;;;;;;;5093503;28;20101;-70
2022/04/14 11:57:19;;;;;;;3.45;2.15;;;;;;;;;;5093541;28;20039;-71
2022/04/14 11:59:50;;;;;;;3.78;2.65;;;;;;;;;;5076365;28;20043;-75
2022/04/14 12:02:20;;;;;;;2.67;1.98;;;;;;;;;;5093456;28;20040;-72
2022/04/14 12:04:56;;;;;;;7.90;3.38;;;;;;;;;;5076745;28;20032;-73
2022/04/14 12:07:23;;;;;;;3.47;1.98;;;;;;;;;;5093367;28;20044;-76
2022/04/14 12:10:03;;;;;;;5.45;2.55;;;;;;;;;;5093975;28;20081;-79
2022/04/14 12:12:33;;;;;;;4.13;2.13;;;;;;;;;;5076758;28;20074;-72
2022/04/14 12:14:59;;;;;;;4.57;1.92;;;;;;;;;;5093333;28;20043;-75
2022/04/14 12:17:25;;;;;;;2.78;1.70;;;;;;;;;;5093590;28;20494;-74
2022/04/14 12:19:53;;;;;;;4.43;1.70;;;;;;;;;;5092046;28;20433;-70
2022/04/14 12:22:19;;;;;;;3.10;1.55;;;;;;;;;;5093750;28;20040;-72
2022/04/14 12:24:49;;;;;;;3.38;1.55;;;;;;;;;;5087845;28;20044;-73
2022/04/14 12:27:16;;;;;;;5.45;2.22;;;;;;;;;;5076517;28;20036;-70
2022/04/14 12:29:42;;;;;;;3.75;1.63;;;;;;;;;;5096614;28;20491;-70
2022/04/14 12:32:10;;;;;;;3.17;1.80;;;;;;;;;;5093877;28;20377;-70
2022/04/14 12:34:36;;;;;;;2.10;1.77;;;;;;;;;;5076761;28;20509;-68
2022/04/14 12:37:09;;;;;;;4.07;1.92;;;;;;;;;;5092970;28;20055;-73
2022/04/14 12:39:35;;;;;;;1.83;1.40;;;;;;;;;;5076402;28;20079;-69
2022/04/14 12:42:01;;;;;;;4.78;2.25;;;;;;;;;;5093372;28;20046;-74
2022/04/14 12:44:27;;;;;;;3.72;2.15;;;;;;;;;;5093058;28;20171;-74
2022/04/14 12:46:53;;;;;;;4.63;3.13;;;;;;;;;;5096239;28;20031;-72
2022/04/14 12:49:30;;;;;;;5.57;2.75;;;;;;;;;;5096504;28;20475;-71
2022/04/14 12:52:01;;;;;;;6.47;3.40;;;;;;;;;;5096478;28;20071;-69
2022/04/14 12:54:28;;;;;;;4.60;2.17;;;;;;;;;;5096357;28;20078;-71
2022/04/14 12:57:01;;;;;;;2.60;1.92;;;;;;;;;;5095825;28;20043;-69
2022/04/14 12:59:28;;;;;;;5.20;2.13;;;;;;;;;;5096671;28;20092;-71
2022/04/14 13:01:54;;;;;;;6.25;2.60;;;;;;;;;;5096061;28;20039;-73
2022/04/14 13:04:40;;;;;;;6.47;2.90;;;;;;;;;;5092437;28;20039;-73
2022/04/14 13:07:07;;;;;;;2.50;1.70;;;;;;;;;;5092710;28;20077;-70
2022/04/14 13:09:34;;;;;;;3.63;2.00;;;;;;;;;;5092526;28;20050;-72
2022/04/14 13:12:00;;;;;;;3.38;1.80;;;;;;;;;;5092625;28;20109;-72
2022/04/14 13:14:30;;;;;;;2.22;1.90;;;;;;;;;;5092467;28;20054;-71
2022/04/14 13:16:58;;;;;;;1.95;1.67;;;;;;;;;;5092959;28;20039;-72
2022/04/14 13:19:25;;;;;;;3.50;1.85;;;;;;;;;;5076135;28;20067;-70
2022/04/14 13:21:51;;;;;;;2.08;1.65;;;;;;;;;;5093036;28;20105;-72
2022/04/14 13:24:18;;;;;;;5.07;2.10;;;;;;;;;;5076392;28;20044;-71
2022/04/14 13:26:44;;;;;;;2.92;2.20;;;;;;;;;;5076084;28;20432;-71
2022/04/14 13:29:11;;;;;;;5.82;2.65;;;;;;;;;;5093081;28;20100;-71
2022/04/14 13:31:38;;;;;;;5.13;2.40;;;;;;;;;;5093214;28;20035;-72
2022/04/14 13:34:03;;;;;;;5.53;2.38;;;;;;;;;;5075331;28;20375;-78
2022/04/14 13:36:29;;;;;;;3.53;2.05;;;;;;;;;;5091825;28;20079;-72
2022/04/14 13:38:55;;;;;;;4.72;2.17;;;;;;;;;;5091048;28;20806;-70
2022/04/14 13:41:21;;;;;;;3.70;2.25;;;;;;;;;;5074650;28;20083;-71
2022/04/14 13:43:47;;;;;;;4.53;2.45;;;;;;;;;;5077012;28;20125;-71
2022/04/14 13:46:14;;;;;;;5.63;2.60;;;;;;;;;;5068303;28;20049;-72
2022/04/14 13:48:40;;;;;;;5.82;2.45;;;;;;;;;;5051314;28;20074;-74
2022/04/14 13:51:06;;;;;;;4.43;2.42;;;;;;;;;;5051607;28;20056;-71
2022/04/14 13:53:32;;;;;;;5.78;2.47;;;;;;;;;;5069127;28;20496;-72
2022/04/14 13:55:58;;;;;;;3.65;2.72;;;;;;;;;;5051526;28;20375;-75
2022/04/14 13:58:24;;;;;;;5.55;2.50;;;;;;;;;;5068220;28;20043;-75
2022/04/14 14:00:50;;;;;;;8.98;3.45;;;;;;;;;;5052390;28;20048;-75
2022/04/14 14:03:16;;;;;;;5.00;2.65;;;;;;;;;;5051733;28;20040;-74
2022/04/14 14:05:42;;;;;;;5.45;3.13;;;;;;;;;;5052630;28;20074;-77
2022/04/14 14:08:08;;;;;;;9.13;3.60;;;;;;;;;;5051856;28;20477;-74
2022/04/14 14:10:36;;;;;;;5.57;2.75;;;;;;;;;;5051742;28;20592;-76
2022/04/14 14:13:02;;;;;;;8.25;3.28;;;;;;;;;;5051729;28;20048;-77
2022/04/14 14:15:29;;;;;;;4.65;2.83;;;;;;;;;;5051695;28;20048;-76
2022/04/14 14:17:55;;;;;;;6.13;2.97;;;;;;;;;;5068746;28;20103;-73
2022/04/14 14:20:21;;;;;;;4.40;2.90;;;;;;;;;;5051124;28;20076;-78
2022/04/14 14:22:47;;;;;;;5.32;2.95;;;;;;;;;;5051656;28;20051;-74
2022/04/14 14:25:14;;;;;;;6.05;2.63;;;;;;;;;;5051903;28;20595;-76
2022/04/14 14:27:40;;;;;;;6.53;3.42;;;;;;;;;;5051224;28;20048;-75
2022/04/14 14:30:07;;;;;;;7.18;4.05;;;;;;;;;;5051983;28;20041;-77
2022/04/14 14:32:33;;;;;;;9.90;4.20;;;;;;;;;;5051227;28;20045;-73